Wofford Heights, CA

8:22 AM PST on February 23, 2018 (GMT -0800)
Hungry Gulch | | Change Station
Active Advisory: Winter Weather Advisory

Elev 3054 ft 35.67 °N, 118.48 °W | Updated 29 seconds ago

Partly Cloudy
Partly Cloudy
36.5 °F
Feels Like 36 °F
N
0.0
Wind Variable Wind from SSE

Today
High -- | Low -- °F
--% Chance of Precip.
Yesterday
High -- | Low -- °F
Precip. -- in
Pressure 30.13 in
Visibility 8.0 miles
Clouds Overcast 500 ft
Windchill 36 °F
Dew Point 28 °F
Humidity 73%
Rainfall 0.00 in
Snow Depth Not available.
6:31 AM 5:43 PM
First Quarter, 54% visible
METAR KTSP 231615Z AUTO 30018G23KT 8SM OVC005 M03/M03 A3013 RMK AO2
Pressure 30.13 in
Visibility 8.0 miles
Clouds Overcast 500 ft
Windchill 36 °F
Dew Point 28 °F
Humidity 73%
Rainfall 0.00 in
Snow Depth Not available.
6:31 AM 5:43 PM
First Quarter, 54% visible
METAR KTSP 231615Z AUTO 30018G23KT 8SM OVC005 M03/M03 A3013 RMK AO2

Get Your Daily Forecast Email!

Thanks for signing up!

Be on the lookout for a verification email in your inbox.

You'll start receiving severe weather alerts in your inbox..

×

10-Day Weather Forecast

Almanac

Astronomy

Feb. 23, 2018 Rise Set
Actual Time
Civil Twilight
Nautical Twilight
Astronomical Twilight
Moon
Length of Visible Light
Length of Day
Tomorrow will be .
, % of the Moon is Illuminated

Today's Extremes

State Highs State Lows

Community

WunderPhotos

Category 6

Welcome to Category 6. This is the collective home for Weather Underground's featured writeups by Dr. Jeff Masters (right), Bob Henson (left), Chris Burt, and other regular contributors.

Nearby

Air Quality

  Air Quality AQ Index Pollutant
Not available.

Snow Depth

Station Depth Elevation

Earthquake Activity

City Distance Mag. Time & Date
Minimum magnitude displayed is 2.5.

Coastal Water Temperatures

Place Temperature

Stations

Nearby Weather Stations

Station Location Temp. Windchill Dew Point Humidity Wind Precip. Elev Updated Type
                   

Watches & Warnings

Winter Weather Advisory
Issued: 6:05 AM PST Feb. 23, 2018 – National Weather Service

... Winter Weather Advisory remains in effect until 10 am PST this
morning...

* what... snow and blowing snow expected. Total snow
accumulations ranging from a dusting to two inches. Westerly
winds will gust to 40 mph at times.

* Where... Kern County mountains. Highways impacted include
Highway 58 through Tehachapi Pass, highways 178 and 155 as
well as Interstate 5 through the Grapevine including Tejon
Pass.

* When... through 10 am PST this morning.

* Additional details... plan on icy, snow-covered roads and travel
delays this morning. Blowing snow may reduce visibility in
places.

Precautionary/preparedness actions...

A Winter Weather Advisory for snow means periods of snow will
cause primarily travel difficulties. Be prepared for snow covered
roads and limited visibilities, and use caution while driving.
The latest Road conditions for the state you are calling from can
be obtained by calling 5 1 1.